Time;durP1;ratioP1;P1;durP2;ratioP2;P2;SDS_P1;SDS_P2;PMS_P1;PMS_P2;Temp;Humidity;BMP_temperature;BMP_pressure;BME280_temperature;BME280_humidity;BME280_pressure;Samples;Min_cycle;Max_cycle;Signal;HPM_P1;HPM_P2
2022/05/04 00:00:32;;;;;;;31.52;22.23;;;10.90;99.90;;;;;;5011071;28;20044;-65
2022/05/04 00:02:58;;;;;;;28.35;18.90;;;10.90;99.90;;;;;;5012017;28;20025;-69
2022/05/04 00:05:25;;;;;;;26.00;19.50;;;10.90;99.90;;;;;;5011935;28;20033;-70
2022/05/04 00:07:51;;;;;;;30.90;18.88;;;10.90;99.90;;;;;;5011105;28;20034;-69
2022/05/04 00:10:17;;;;;;;29.13;17.85;;;10.90;99.90;;;;;;5011782;28;20572;-68
2022/05/04 00:12:43;;;;;;;30.70;17.15;;;10.80;99.90;;;;;;5011780;28;20365;-68
2022/05/04 00:15:10;;;;;;;27.10;16.90;;;10.80;99.90;;;;;;5011963;28;20037;-70
2022/05/04 00:17:36;;;;;;;24.58;14.88;;;10.90;99.90;;;;;;5011734;28;20026;-71
2022/05/04 00:20:02;;;;;;;25.67;16.67;;;10.90;99.90;;;;;;5011846;28;20028;-70
2022/05/04 00:22:28;;;;;;;22.85;14.38;;;10.90;99.90;;;;;;5011631;28;20030;-69
2022/05/04 00:24:53;;;;;;;25.27;15.38;;;10.80;99.90;;;;;;5011509;28;20104;-69
2022/05/04 00:27:20;;;;;;;26.30;15.77;;;10.80;99.90;;;;;;5011717;28;20040;-69
2022/05/04 00:29:46;;;;;;;25.63;16.48;;;10.70;99.90;;;;;;5011728;28;20428;-71
2022/05/04 00:32:13;;;;;;;23.65;14.50;;;10.70;99.90;;;;;;5015432;28;20125;-64
2022/05/04 00:34:39;;;;;;;21.67;15.23;;;10.70;99.90;;;;;;5015432;28;20057;-68
2022/05/04 00:37:06;;;;;;;23.70;14.27;;;10.60;99.90;;;;;;5015002;28;20064;-70
2022/05/04 00:39:32;;;;;;;24.27;13.32;;;10.60;99.90;;;;;;5015216;28;20133;-69
2022/05/04 00:42:16;;;;;;;26.55;14.50;;;10.60;99.90;;;;;;5014769;28;20030;-67
2022/05/04 00:44:44;;;;;;;23.10;12.85;;;10.60;99.90;;;;;;5014035;28;20048;-68
2022/05/04 00:47:10;;;;;;;23.85;11.82;;;10.50;99.90;;;;;;5013897;28;20125;-66
2022/05/04 00:49:38;;;;;;;21.60;12.85;;;10.60;99.90;;;;;;5013999;28;20030;-69
2022/05/04 00:52:05;;;;;;;22.67;13.57;;;10.30;99.90;;;;;;5013904;28;20029;-65
2022/05/04 00:54:34;;;;;;;21.08;14.30;;;10.20;99.90;;;;;;5012833;28;20014;-70
2022/05/04 00:57:02;;;;;;;24.73;14.00;;;10.30;99.90;;;;;;5013717;28;20043;-69
2022/05/04 00:59:30;;;;;;;34.92;21.40;;;10.00;99.90;;;;;;5014526;28;20129;-68
2022/05/04 01:01:57;;;;;;;34.67;23.50;;;9.90;99.90;;;;;;5015151;28;20085;-66
2022/05/04 01:04:23;;;;;;;43.40;26.33;;;9.90;99.90;;;;;;5015146;28;20361;-68
2022/05/04 01:06:49;;;;;;;41.03;26.63;;;9.80;99.90;;;;;;5014908;28;20072;-71
2022/05/04 01:09:15;;;;;;;38.58;25.75;;;9.60;99.90;;;;;;5014448;28;20076;-69
2022/05/04 01:11:42;;;;;;;40.83;25.17;;;9.70;99.90;;;;;;5014888;28;20056;-68
2022/05/04 01:14:10;;;;;;;37.10;25.20;;;9.70;99.90;;;;;;5014701;28;20528;-66
2022/05/04 01:16:41;;;;;;;39.67;26.13;;;9.70;99.90;;;;;;5014722;28;20021;-69
2022/05/04 01:19:08;;;;;;;38.42;26.95;;;9.80;99.90;;;;;;5014835;28;20038;-68
2022/05/04 01:21:35;;;;;;;56.58;34.15;;;9.80;99.90;;;;;;5014661;28;20026;-68
2022/05/04 01:24:01;;;;;;;63.25;37.33;;;9.90;99.90;;;;;;5014467;28;20022;-69
2022/05/04 01:26:27;;;;;;;47.55;31.60;;;9.90;99.90;;;;;;5014632;28;20487;-71
2022/05/04 01:28:53;;;;;;;44.13;28.05;;;10.00;99.90;;;;;;5014425;28;20165;-69
2022/05/04 01:31:19;;;;;;;50.05;29.27;;;10.00;99.90;;;;;;5014082;28;20633;-70
2022/05/04 01:33:45;;;;;;;46.42;28.48;;;10.00;99.90;;;;;;5014304;28;20033;-69
2022/05/04 01:36:11;;;;;;;47.03;30.00;;;10.00;99.90;;;;;;5013965;28;20026;-70
2022/05/04 01:38:37;;;;;;;39.45;26.23;;;10.00;99.90;;;;;;5013576;28;20049;-70
2022/05/04 01:41:03;;;;;;;45.15;26.48;;;10.00;99.90;;;;;;5014119;28;20022;-66
2022/05/04 01:43:29;;;;;;;37.55;25.75;;;9.90;99.90;;;;;;5014494;28;20443;-70
2022/05/04 01:45:56;;;;;;;36.83;25.67;;;9.90;99.90;;;;;;5013898;28;20046;-69
2022/05/04 01:48:23;;;;;;;36.92;25.23;;;9.90;99.90;;;;;;5013931;28;20101;-69
2022/05/04 01:50:49;;;;;;;37.65;26.00;;;9.90;99.90;;;;;;5014212;28;20436;-70
2022/05/04 01:53:16;;;;;;;36.85;25.00;;;9.90;99.90;;;;;;5013567;28;20057;-69
2022/05/04 01:55:42;;;;;;;36.72;24.67;;;9.90;99.90;;;;;;5013907;28;20038;-70
2022/05/04 01:58:08;;;;;;;35.17;24.58;;;9.90;99.90;;;;;;5013714;28;20117;-68
2022/05/04 02:00:34;;;;;;;36.75;24.30;;;9.90;99.90;;;;;;5013691;28;20118;-70
2022/05/04 02:03:00;;;;;;;32.45;23.27;;;9.80;99.90;;;;;;5014300;28;20468;-70
2022/05/04 02:05:27;;;;;;;36.50;23.88;;;9.80;99.90;;;;;;5013730;28;20121;-69
2022/05/04 02:07:54;;;;;;;37.83;24.63;;;9.70;99.90;;;;;;5013274;28;20022;-67
2022/05/04 02:10:20;;;;;;;31.52;24.50;;;9.80;99.90;;;;;;5013640;28;20026;-68
2022/05/04 02:12:46;;;;;;;37.53;21.92;;;9.70;99.90;;;;;;5013674;28;20109;-70
2022/05/04 02:15:12;;;;;;;35.95;23.60;;;9.60;99.90;;;;;;5013756;28;20464;-68
2022/05/04 02:17:39;;;;;;;35.97;25.10;;;9.50;99.90;;;;;;5013398;28;20033;-68
2022/05/04 02:20:06;;;;;;;32.22;21.55;;;9.50;99.90;;;;;;5013563;28;20026;-70
2022/05/04 02:22:32;;;;;;;35.58;24.80;;;9.50;99.90;;;;;;5013829;28;20037;-68
2022/05/04 02:24:58;;;;;;;32.33;22.52;;;9.50;99.90;;;;;;5012937;28;20030;-68
2022/05/04 02:27:24;;;;;;;35.97;22.73;;;9.50;99.90;;;;;;5012732;28;20448;-69
2022/05/04 02:29:49;;;;;;;31.13;22.63;;;9.50;99.90;;;;;;5012755;28;20436;-69
2022/05/04 02:32:15;;;;;;;32.78;23.27;;;9.50;99.90;;;;;;4995366;28;20080;-68
2022/05/04 02:40:11;;;;;;;33.88;23.38;;;9.50;99.90;;;;;;5012468;28;20450;-68
2022/05/04 02:42:37;;;;;;;33.67;22.88;;;9.50;99.90;;;;;;5012747;28;20034;-67
2022/05/04 02:45:05;;;;;;;31.10;21.52;;;9.50;99.90;;;;;;5012303;28;20096;-70
2022/05/04 02:47:31;;;;;;;37.00;23.45;;;9.40;99.90;;;;;;5012674;28;20021;-68
2022/05/04 02:49:57;;;;;;;29.48;21.25;;;9.40;99.90;;;;;;5012319;28;20837;-69
2022/05/04 02:52:23;;;;;;;32.63;23.85;;;9.30;99.90;;;;;;5011932;28;20532;-70
2022/05/04 02:54:48;;;;;;;31.80;22.48;;;9.30;99.90;;;;;;5012050;28;20022;-69
2022/05/04 02:57:14;;;;;;;29.27;20.27;;;9.20;99.90;;;;;;5012275;28;20045;-70
2022/05/04 02:59:40;;;;;;;31.23;20.98;;;9.20;99.90;;;;;;5012178;28;20029;-68
2022/05/04 03:04:50;;;;;;;34.95;21.13;;;9.20;99.90;;;;;;5012412;28;20045;-68
2022/05/04 03:07:16;;;;;;;34.75;22.13;;;9.20;99.90;;;;;;5012178;28;20105;-71
2022/05/04 03:09:42;;;;;;;32.10;20.80;;;9.20;99.90;;;;;;5011907;28;20030;-69
2022/05/04 03:12:08;;;;;;;27.55;19.48;;;9.20;99.90;;;;;;5012174;28;20026;-70
2022/05/04 03:14:34;;;;;;;30.65;20.17;;;9.20;99.90;;;;;;5012092;28;20377;-70
2022/05/04 03:17:00;;;;;;;38.72;23.38;;;9.20;99.90;;;;;;5012231;28;20029;-70
2022/05/04 03:19:26;;;;;;;33.00;23.88;;;9.10;99.90;;;;;;5011949;28;20117;-66
2022/05/04 03:21:52;;;;;;;37.25;24.95;;;9.10;99.90;;;;;;5012106;28;20022;-69
2022/05/04 03:24:19;;;;;;;32.63;23.52;;;9.00;99.90;;;;;;5011789;28;20029;-71
2022/05/04 03:26:44;;;;;;;35.90;25.35;;;9.00;99.90;;;;;;5011971;28;20030;-67
2022/05/04 03:29:11;;;;;;;36.53;27.38;;;9.00;99.90;;;;;;5012019;28;20037;-68
2022/05/04 03:31:37;;;;;;;36.88;26.30;;;9.00;99.90;;;;;;5011460;28;20045;-69
2022/05/04 03:34:04;;;;;;;34.58;24.83;;;9.00;99.90;;;;;;5011977;28;20052;-67
2022/05/04 03:36:30;;;;;;;33.17;23.88;;;9.10;99.90;;;;;;5011583;28;20033;-65
2022/05/04 03:38:56;;;;;;;35.85;23.67;;;9.10;99.90;;;;;;5011431;28;20080;-66
2022/05/04 03:41:22;;;;;;;35.97;23.65;;;9.30;99.90;;;;;;5012011;28;20077;-66
2022/05/04 03:43:48;;;;;;;29.88;22.08;;;9.50;99.90;;;;;;5009911;28;20038;-67
2022/05/04 03:46:18;;;;;;;32.35;21.73;;;9.70;99.90;;;;;;5005169;28;20050;-66
2022/05/04 03:48:45;;;;;;;40.90;21.20;;;9.80;99.90;;;;;;5009368;28;20061;-67
2022/05/04 03:51:13;;;;;;;32.08;20.42;;;9.70;99.90;;;;;;5011696;28;20022;-68
2022/05/04 03:53:42;;;;;;;33.33;21.63;;;9.70;99.90;;;;;;5011846;28;20057;-65
2022/05/04 03:56:08;;;;;;;31.83;21.70;;;9.70;99.90;;;;;;5011966;28;20022;-68
2022/05/04 03:58:34;;;;;;;29.65;21.42;;;10.10;99.90;;;;;;5011314;28;20713;-65
2022/05/04 04:01:00;;;;;;;29.95;20.63;;;10.80;99.90;;;;;;5011507;28;20500;-65
2022/05/04 04:03:27;;;;;;;31.02;19.85;;;11.50;99.90;;;;;;5011571;28;20357;-66
2022/05/04 04:05:53;;;;;;;26.27;18.00;;;12.30;99.90;;;;;;5027055;28;20017;-65
2022/05/04 04:08:18;;;;;;;29.30;17.38;;;12.60;99.90;;;;;;5031256;28;20084;-64
2022/05/04 04:10:44;;;;;;;26.77;17.88;;;12.90;99.90;;;;;;5030259;28;20031;-71
2022/05/04 04:13:10;;;;;;;24.90;15.70;;;13.30;99.90;;;;;;5021947;28;20065;-68
2022/05/04 04:15:36;;;;;;;25.25;16.50;;;13.60;99.90;;;;;;5020755;28;20028;-66
2022/05/04 04:18:02;;;;;;;27.23;16.63;;;14.30;99.90;;;;;;5004157;28;20038;-67
2022/05/04 04:23:12;;;;;;;23.38;16.27;;;15.20;99.90;;;;;;5010682;28;20034;-69
2022/05/04 04:25:38;;;;;;;30.25;19.35;;;16.00;99.90;;;;;;5011085;28;20385;-71
2022/05/04 04:28:05;;;;;;;25.75;17.08;;;16.30;98.40;;;;;;5011001;28;20033;-68
2022/05/04 04:30:31;;;;;;;21.60;15.77;;;16.20;98.40;;;;;;5011409;28;20022;-71
2022/05/04 04:32:57;;;;;;;22.58;15.93;;;16.30;97.00;;;;;;5018609;28;20033;-67
2022/05/04 04:35:22;;;;;;;24.95;17.25;;;17.40;94.50;;;;;;5020474;28;20022;-69
2022/05/04 04:37:49;;;;;;;24.55;15.65;;;17.90;93.30;;;;;;5011291;28;20576;-66
2022/05/04 04:40:14;;;;;;;26.70;16.58;;;17.90;90.70;;;;;;5011181;28;20113;-65
2022/05/04 04:42:40;;;;;;;23.92;16.48;;;18.30;90.90;;;;;;5011258;28;20022;-67
2022/05/04 04:45:07;;;;;;;23.90;15.13;;;18.80;90.00;;;;;;5012785;28;20026;-71
2022/05/04 04:47:35;;;;;;;22.17;14.93;;;18.80;89.50;;;;;;5024563;28;20029;-68
2022/05/04 04:50:01;;;;;;;22.63;15.52;;;19.10;87.90;;;;;;5010773;28;20527;-70
2022/05/04 04:52:26;;;;;;;20.75;15.80;;;19.50;84.80;;;;;;5010486;28;20030;-67
2022/05/04 04:54:52;;;;;;;24.55;15.60;;;19.70;82.00;;;;;;5010874;28;20113;-82
2022/05/04 04:57:18;;;;;;;19.52;14.23;;;19.70;82.00;;;;;;5011921;28;20105;-81
2022/05/04 04:59:44;;;;;;;27.60;15.48;;;19.40;82.40;;;;;;4992556;28;20777;-81
2022/05/04 05:02:10;;;;;;;24.35;16.65;;;19.40;83.40;;;;;;4992578;28;20117;-77
2022/05/04 05:04:36;;;;;;;26.88;16.17;;;18.00;88.00;;;;;;5012315;28;20534;-81
2022/05/04 05:07:02;;;;;;;24.50;15.88;;;17.30;92.30;;;;;;5010555;28;20018;-81
2022/05/04 05:09:28;;;;;;;22.90;15.38;;;16.90;95.10;;;;;;5010190;28;20101;-81
2022/05/04 05:11:54;;;;;;;23.02;14.57;;;16.60;97.30;;;;;;5010719;28;20061;-81
2022/05/04 05:17:05;;;;;;;25.33;15.05;;;16.40;98.80;;;;;;5012933;28;20037;-81
2022/05/04 05:19:30;;;;;;;22.35;15.57;;;16.20;99.50;;;;;;5014675;28;20037;-80
2022/05/04 05:21:56;;;;;;;22.17;14.57;;;16.30;99.90;;;;;;5013840;28;20029;-79
2022/05/04 05:24:22;;;;;;;23.42;14.60;;;16.20;99.90;;;;;;4996379;28;20129;-80
2022/05/04 05:26:48;;;;;;;23.70;14.48;;;16.30;99.90;;;;;;5014359;28;20091;-79
2022/05/04 05:29:14;;;;;;;20.17;13.30;;;16.10;99.90;;;;;;5013466;28;20061;-81
2022/05/04 05:31:40;;;;;;;21.90;12.82;;;16.10;99.90;;;;;;5012965;28;20034;-79
2022/05/04 05:34:09;;;;;;;20.35;13.77;;;16.20;99.90;;;;;;5012904;28;20029;-77
2022/05/04 05:36:35;;;;;;;18.27;11.48;;;16.00;99.90;;;;;;5013352;28;20108;-69
2022/05/04 05:39:00;;;;;;;19.40;12.60;;;16.30;99.90;;;;;;5013460;28;20133;-69
2022/05/04 05:41:26;;;;;;;18.38;12.27;;;16.50;99.90;;;;;;5013721;28;20037;-69
2022/05/04 05:43:55;;;;;;;24.88;15.57;;;16.60;99.80;;;;;;5013457;28;20083;-70
2022/05/04 05:46:21;;;;;;;26.83;15.57;;;16.50;99.90;;;;;;5013320;28;20038;-69
2022/05/04 05:48:47;;;;;;;26.60;14.52;;;16.70;99.90;;;;;;5013589;28;20610;-69
2022/05/04 05:51:13;;;;;;;21.90;14.65;;;16.80;99.90;;;;;;5013505;28;20018;-69
2022/05/04 05:53:39;;;;;;;23.08;15.75;;;16.90;98.80;;;;;;5013578;28;20090;-70
2022/05/04 05:56:06;;;;;;;24.02;15.65;;;16.90;99.60;;;;;;5013503;28;20691;-70
2022/05/04 05:58:32;;;;;;;21.95;14.77;;;17.00;98.00;;;;;;5013293;28;20048;-71
2022/05/04 06:00:58;;;;;;;25.50;15.48;;;17.20;97.90;;;;;;5013015;28;20050;-69
2022/05/04 06:03:24;;;;;;;19.65;13.82;;;17.20;99.20;;;;;;5012589;28;20029;-68
2022/05/04 06:05:50;;;;;;;24.02;14.25;;;17.00;97.70;;;;;;5013413;28;20030;-67
2022/05/04 06:08:16;;;;;;;22.23;13.85;;;16.80;99.90;;;;;;5013245;28;20508;-69
2022/05/04 06:10:42;;;;;;;20.38;13.98;;;16.70;99.90;;;;;;5013190;28;20056;-68
2022/05/04 06:13:08;;;;;;;21.30;13.52;;;16.70;99.90;;;;;;5013032;28;20033;-70
2022/05/04 06:15:34;;;;;;;18.58;12.30;;;16.90;99.90;;;;;;5013169;28;20033;-69
2022/05/04 06:18:01;;;;;;;24.55;16.05;;;17.00;99.90;;;;;;5012881;28;20026;-68
2022/05/04 06:20:27;;;;;;;23.58;15.63;;;16.90;99.90;;;;;;5012962;28;20463;-68
2022/05/04 06:22:53;;;;;;;24.48;14.82;;;16.90;99.90;;;;;;5012881;28;20014;-69
2022/05/04 06:25:19;;;;;;;20.85;12.60;;;16.80;99.90;;;;;;5012641;28;20477;-69
2022/05/04 06:27:45;;;;;;;19.83;12.88;;;17.10;99.90;;;;;;5011810;28;20026;-70
2022/05/04 06:35:40;;;;;;;20.70;11.43;;;17.10;99.20;;;;;;5012211;28;20029;-69
2022/05/04 06:38:06;;;;;;;17.75;11.15;;;17.30;99.60;;;;;;5012294;28;20018;-70
2022/05/04 06:40:32;;;;;;;19.65;12.00;;;17.10;98.30;;;;;;5012882;28;20038;-69
2022/05/04 06:42:59;;;;;;;17.02;9.85;;;17.30;99.90;;;;;;5012148;28;20479;-69
2022/05/04 06:45:25;;;;;;;16.55;9.80;;;17.50;99.70;;;;;;5012500;28;20407;-70
2022/05/04 06:47:51;;;;;;;13.50;8.68;;;17.60;99.20;;;;;;5012518;28;20053;-68
2022/05/04 06:50:17;;;;;;;18.65;10.13;;;17.90;99.00;;;;;;5012253;28;20379;-71
2022/05/04 06:52:43;;;;;;;16.27;10.25;;;17.90;96.70;;;;;;5012045;28;20026;-70
2022/05/04 06:55:09;;;;;;;14.80;9.23;;;18.30;96.70;;;;;;5012005;28;20392;-71
2022/05/04 06:57:36;;;;;;;18.30;9.95;;;18.50;95.00;;;;;;5011579;28;20018;-70
2022/05/04 07:00:04;;;;;;;17.45;10.73;;;18.50;99.50;;;;;;5012358;28;20483;-70
2022/05/04 07:02:33;;;;;;;14.05;8.73;;;18.70;97.90;;;;;;4994654;28;20017;-70
2022/05/04 07:05:01;;;;;;;14.43;8.40;;;18.80;96.00;;;;;;5012185;28;20022;-70
2022/05/04 07:07:27;;;;;;;27.10;9.15;;;19.20;95.50;;;;;;5011566;28;20022;-70
2022/05/04 07:09:53;;;;;;;16.00;9.18;;;19.10;94.40;;;;;;5012026;28;20113;-70
2022/05/04 07:12:20;;;;;;;17.95;9.45;;;18.90;93.80;;;;;;5011450;28;20022;-70
2022/05/04 07:14:46;;;;;;;16.48;9.15;;;19.20;96.10;;;;;;5011338;28;20054;-70
2022/05/04 07:17:12;;;;;;;15.05;8.70;;;19.60;93.40;;;;;;5011171;28;20377;-71
2022/05/04 07:19:38;;;;;;;14.38;8.40;;;19.90;96.40;;;;;;5011836;28;20072;-70
2022/05/04 07:22:04;;;;;;;12.48;7.55;;;20.00;90.20;;;;;;5011932;28;20053;-71
2022/05/04 07:24:30;;;;;;;13.45;8.20;;;20.00;90.80;;;;;;5012474;28;20064;-71
2022/05/04 07:26:56;;;;;;;13.20;6.63;;;20.20;92.80;;;;;;5012246;28;20165;-68
2022/05/04 07:29:22;;;;;;;10.57;6.43;;;20.50;91.50;;;;;;5012135;28;20196;-71
2022/05/04 07:31:47;;;;;;;11.38;6.45;;;20.70;90.30;;;;;;5012569;28;20034;-72
2022/05/04 07:34:18;;;;;;;12.70;6.65;;;21.00;90.50;;;;;;5012583;28;20030;-72
2022/05/04 07:36:44;;;;;;;14.15;6.72;;;21.00;87.60;;;;;;5010668;28;20026;-72
2022/05/04 07:42:21;;;;;;;15.88;6.60;;;20.50;86.40;;;;;;5012063;28;20030;-70
2022/05/04 07:44:44;;;;;;;14.32;6.30;;;21.00;89.10;;;;;;5011852;28;20034;-71
2022/05/04 07:47:10;;;;;;;17.77;6.88;;;21.00;90.00;;;;;;5018384;28;20045;-68
2022/05/04 07:49:36;;;;;;;10.75;5.47;;;21.10;84.40;;;;;;5032072;28;20038;-69
2022/05/04 07:52:02;;;;;;;12.98;6.07;;;21.10;84.80;;;;;;5031383;28;20112;-70
2022/05/04 07:54:28;;;;;;;9.23;5.63;;;21.00;84.40;;;;;;5031515;28;20549;-69
2022/05/04 07:56:54;;;;;;;12.60;6.70;;;21.10;82.40;;;;;;5031809;28;20061;-70
2022/05/04 07:59:20;;;;;;;11.88;7.03;;;21.50;85.30;;;;;;5030755;28;20060;-69
2022/05/04 08:04:30;;;;;;;13.10;5.90;;;21.60;82.30;;;;;;5012501;28;20030;-69
2022/05/04 08:06:56;;;;;;;11.65;6.32;;;21.80;80.20;;;;;;5011506;28;20045;-69
2022/05/04 08:09:22;;;;;;;9.38;5.15;;;21.90;84.30;;;;;;5011728;28;20435;-70
2022/05/04 08:11:48;;;;;;;12.60;6.38;;;22.20;82.70;;;;;;5011193;28;20022;-71
2022/05/04 08:14:16;;;;;;;10.85;5.68;;;22.50;82.10;;;;;;5011888;28;20029;-71
2022/05/04 08:16:42;;;;;;;10.50;5.78;;;22.10;76.10;;;;;;5012079;28;20030;-71
2022/05/04 08:19:08;;;;;;;9.85;6.20;;;21.60;81.60;;;;;;5011700;28;20041;-72
2022/05/04 08:21:37;;;;;;;9.82;5.90;;;21.40;80.20;;;;;;5011814;28;20018;-70
2022/05/04 08:24:04;;;;;;;13.75;6.03;;;21.70;79.70;;;;;;5012029;28;20026;-72
2022/05/04 08:26:30;;;;;;;14.05;5.85;;;21.40;79.50;;;;;;5009337;28;20250;-68
2022/05/04 08:28:56;;;;;;;10.43;5.72;;;21.80;81.20;;;;;;5004821;28;20033;-69
2022/05/04 08:31:22;;;;;;;11.20;4.85;;;21.90;79.20;;;;;;5010812;28;20026;-72
2022/05/04 08:33:49;;;;;;;13.65;6.65;;;21.50;79.90;;;;;;5011694;28;20021;-71
2022/05/04 08:36:15;;;;;;;12.88;6.03;;;22.00;82.90;;;;;;5010835;28;20098;-71
2022/05/04 08:38:41;;;;;;;15.15;5.38;;;21.80;76.80;;;;;;5011516;28;20034;-69
2022/05/04 08:41:07;;;;;;;12.63;5.18;;;21.60;75.80;;;;;;4993021;28;20044;-71
2022/05/04 08:43:34;;;;;;;9.40;5.90;;;22.10;81.50;;;;;;5011371;28;20033;-69
2022/05/04 08:46:02;;;;;;;13.50;5.28;;;22.30;78.90;;;;;;5010788;28;20081;-72
2022/05/04 08:48:32;;;;;;;10.65;5.22;;;22.50;84.20;;;;;;5010539;28;20045;-70
2022/05/04 08:51:04;;;;;;;7.82;4.45;;;22.80;83.40;;;;;;5012014;28;20483;-70
2022/05/04 08:53:30;;;;;;;9.85;5.75;;;22.80;78.70;;;;;;5015660;28;20060;-71
2022/05/04 08:55:57;;;;;;;7.43;4.85;;;22.50;77.70;;;;;;5015637;28;20472;-72
2022/05/04 08:58:23;;;;;;;9.30;5.10;;;22.80;77.60;;;;;;5015468;28;20393;-71
2022/05/04 09:00:49;;;;;;;11.85;5.22;;;22.20;73.20;;;;;;5015298;28;20534;-71
2022/05/04 09:03:14;;;;;;;13.57;4.90;;;21.90;74.10;;;;;;5015286;28;20121;-72
2022/05/04 09:05:46;;;;;;;8.80;5.10;;;21.90;72.60;;;;;;5013084;28;20038;-68
2022/05/04 09:08:12;;;;;;;9.80;5.13;;;22.00;73.00;;;;;;4997147;28;20499;-72
2022/05/04 09:10:39;;;;;;;14.55;5.13;;;22.00;73.30;;;;;;5014634;28;20097;-65
2022/05/04 09:13:06;;;;;;;6.15;3.72;;;21.40;71.00;;;;;;5014354;28;20025;-65
2022/05/04 09:15:34;;;;;;;7.68;4.10;;;21.80;71.20;;;;;;5014393;28;20029;-71
2022/05/04 09:18:05;;;;;;;8.95;4.65;;;22.20;73.10;;;;;;5015051;28;20048;-67
2022/05/04 09:20:52;;;;;;;8.75;5.07;;;22.50;73.90;;;;;;5014795;28;20030;-71
2022/05/04 09:23:21;;;;;;;10.65;4.20;;;22.80;69.90;;;;;;5014702;28;20030;-71
2022/05/04 09:26:01;;;;;;;10.35;4.22;;;22.80;70.80;;;;;;5015067;28;20033;-72
2022/05/04 09:28:29;;;;;;;12.48;4.50;;;23.10;70.60;;;;;;5014614;28;20034;-67
2022/05/04 09:30:56;;;;;;;12.70;4.80;;;22.90;68.60;;;;;;5014459;28;20034;-71
2022/05/04 09:33:26;;;;;;;6.97;3.78;;;22.90;67.60;;;;;;5014899;28;20069;-71
2022/05/04 09:35:53;;;;;;;11.65;4.47;;;22.70;65.30;;;;;;5014848;28;20018;-72
2022/05/04 09:46:43;;;;;;;12.45;4.97;;;23.80;67.10;;;;;;5014219;28;20030;-71
2022/05/04 09:49:20;;;;;;;8.82;3.90;;;23.80;64.30;;;;;;5014087;28;20064;-71
2022/05/04 09:51:52;;;;;;;7.47;3.47;;;23.90;63.40;;;;;;5013603;28;20022;-72
2022/05/04 09:54:20;;;;;;;7.90;3.70;;;24.00;62.40;;;;;;5014000;28;20030;-72
2022/05/04 09:56:52;;;;;;;7.95;4.07;;;23.80;59.20;;;;;;5014306;28;20055;-71
2022/05/04 09:59:23;;;;;;;7.10;3.10;;;23.50;61.80;;;;;;5013533;28;20041;-70
2022/05/04 10:01:51;;;;;;;8.90;3.90;;;23.00;62.60;;;;;;5013526;28;20034;-71
2022/05/04 10:04:18;;;;;;;6.18;3.22;;;23.30;60.70;;;;;;5013566;28;20026;-65
2022/05/04 10:06:44;;;;;;;8.98;3.42;;;23.20;60.50;;;;;;5014435;28;20052;-68
2022/05/04 10:09:11;;;;;;;5.25;3.40;;;22.70;58.00;;;;;;5014038;28;20033;-68
2022/05/04 10:11:40;;;;;;;7.78;3.95;;;23.00;57.50;;;;;;5014083;28;20021;-70
2022/05/04 10:14:13;;;;;;;3.83;2.67;;;22.90;56.40;;;;;;5016004;28;20026;-72
2022/05/04 10:17:02;;;;;;;7.68;3.30;;;23.10;52.80;;;;;;5014080;28;20030;-67
2022/05/04 10:20:11;;;;;;;5.20;2.78;;;23.20;53.30;;;;;;5013737;28;20061;-65
2022/05/04 10:22:47;;;;;;;3.65;2.10;;;23.10;55.90;;;;;;4991224;28;20031;-71
2022/05/04 10:25:14;;;;;;;5.10;2.97;;;22.90;52.80;;;;;;4996186;28;20614;-72
2022/05/04 10:27:42;;;;;;;4.72;2.47;;;23.10;51.40;;;;;;4991410;28;20038;-68
2022/05/04 10:32:59;;;;;;;5.82;3.03;;;22.80;53.90;;;;;;4991908;28;20139;-71
2022/05/04 10:35:34;;;;;;;7.85;3.10;;;23.00;54.50;;;;;;4987831;28;20362;-70
2022/05/04 10:38:00;;;;;;;4.78;2.60;;;23.20;52.90;;;;;;4992968;28;20069;-71
2022/05/04 10:40:56;;;;;;;6.85;2.90;;;22.80;52.80;;;;;;5005261;28;20074;-68
2022/05/04 10:43:34;;;;;;;9.40;3.15;;;22.80;53.60;;;;;;5000306;28;20373;-67
2022/05/04 10:46:21;;;;;;;7.18;2.80;;;22.80;53.50;;;;;;5001556;28;20051;-67
2022/05/04 10:49:04;;;;;;;6.85;2.95;;;22.90;54.30;;;;;;4961582;28;20030;-71
2022/05/04 10:51:33;;;;;;;11.50;3.60;;;22.80;55.10;;;;;;4966242;28;20112;-68
2022/05/04 10:54:09;;;;;;;12.15;4.55;;;23.10;57.10;;;;;;4954313;28;20729;-63
2022/05/04 10:56:40;;;;;;;5.80;2.85;;;23.50;56.40;;;;;;4963911;28;20039;-68
2022/05/04 10:59:07;;;;;;;5.45;3.08;;;23.60;53.60;;;;;;4965763;28;20532;-70
2022/05/04 11:01:35;;;;;;;8.43;2.75;;;23.50;54.10;;;;;;4976882;28;20037;-71
2022/05/04 11:04:11;;;;;;;5.82;2.72;;;23.70;56.60;;;;;;4993314;28;20034;-72
2022/05/04 11:06:45;;;;;;;4.18;2.60;;;23.70;56.00;;;;;;4992861;28;20387;-71
2022/05/04 11:09:17;;;;;;;4.75;3.28;;;23.80;56.60;;;;;;4993361;28;20034;-65
2022/05/04 11:11:45;;;;;;;6.88;2.42;;;24.00;57.30;;;;;;4993322;28;20110;-72
2022/05/04 11:14:13;;;;;;;5.03;3.35;;;24.00;56.20;;;;;;4996078;28;20072;-71
2022/05/04 11:16:41;;;;;;;5.60;2.70;;;24.00;56.20;;;;;;4997373;28;20061;-72
2022/05/04 11:19:08;;;;;;;4.40;2.83;;;23.70;54.00;;;;;;4992311;28;20092;-68
2022/05/04 11:21:38;;;;;;;4.43;2.65;;;23.70;54.60;;;;;;4993437;28;20022;-72
2022/05/04 11:24:11;;;;;;;3.88;2.53;;;23.60;55.10;;;;;;4992972;28;20255;-72
2022/05/04 11:26:40;;;;;;;6.78;2.95;;;23.20;55.70;;;;;;4993208;28;20035;-69
2022/05/04 11:29:10;;;;;;;6.03;2.88;;;23.30;55.20;;;;;;4992576;28;20416;-70
2022/05/04 11:31:36;;;;;;;7.20;3.08;;;23.00;54.90;;;;;;4992225;28;20036;-64
2022/05/04 11:34:03;;;;;;;8.95;3.55;;;23.40;57.70;;;;;;4993293;28;20034;-69
2022/05/04 11:36:30;;;;;;;10.57;3.10;;;23.60;56.40;;;;;;4992035;28;20450;-68
2022/05/04 11:38:56;;;;;;;7.95;4.35;;;23.40;55.60;;;;;;4994067;28;20041;-71
2022/05/04 11:41:21;;;;;;;9.80;3.30;;;23.60;56.40;;;;;;4992808;28;20022;-68
2022/05/04 11:43:49;;;;;;;9.85;3.47;;;23.40;55.70;;;;;;4991809;28;20031;-72
2022/05/04 11:46:16;;;;;;;9.45;3.65;;;23.40;55.00;;;;;;5003698;28;20042;-70
2022/05/04 11:48:44;;;;;;;4.43;3.00;;;23.30;56.30;;;;;;5012240;28;20044;-70
2022/05/04 11:51:11;;;;;;;7.43;2.90;;;23.50;55.00;;;;;;5012261;28;20476;-72
2022/05/04 11:53:37;;;;;;;4.28;2.92;;;23.50;56.10;;;;;;5012185;28;20021;-73
2022/05/04 11:56:06;;;;;;;5.55;2.72;;;23.40;55.10;;;;;;5012031;28;20033;-72
2022/05/04 11:58:34;;;;;;;6.13;2.83;;;23.50;54.40;;;;;;5011919;28;20392;-65
2022/05/04 12:01:02;;;;;;;4.38;2.90;;;23.70;57.00;;;;;;5010935;28;20084;-71
2022/05/04 12:03:31;;;;;;;11.50;2.85;;;23.70;55.50;;;;;;5010958;28;20026;-68
2022/05/04 12:05:59;;;;;;;9.35;3.03;;;23.80;56.20;;;;;;5011186;28;20153;-71
2022/05/04 12:08:25;;;;;;;19.25;3.60;;;23.70;54.00;;;;;;5011355;28;20108;-68
2022/05/04 12:10:51;;;;;;;8.13;2.58;;;23.80;56.40;;;;;;5011455;28;20092;-72
2022/05/04 12:13:26;;;;;;;12.45;2.67;;;23.80;56.20;;;;;;5011975;28;20021;-72
2022/05/04 12:15:56;;;;;;;4.95;2.40;;;23.70;54.70;;;;;;5011089;28;20041;-71
2022/05/04 12:18:28;;;;;;;6.15;2.83;;;23.80;55.80;;;;;;5011239;28;20139;-72
2022/05/04 12:20:54;;;;;;;4.13;2.72;;;23.60;53.50;;;;;;5012124;28;20050;-71
2022/05/04 12:23:22;;;;;;;9.30;3.03;;;23.70;53.00;;;;;;5014419;28;20025;-70
2022/05/04 12:25:49;;;;;;;7.20;2.60;;;23.80;57.40;;;;;;4995864;28;20035;-73
2022/05/04 12:28:16;;;;;;;4.20;2.80;;;23.80;55.80;;;;;;4991277;28;20030;-66
2022/05/04 12:33:35;;;;;;;3.22;2.35;;;23.50;54.60;;;;;;5003768;28;20033;-72
2022/05/04 12:36:05;;;;;;;10.68;3.10;;;23.20;53.60;;;;;;5010936;28;20026;-71
2022/05/04 12:38:35;;;;;;;5.30;2.65;;;23.40;54.90;;;;;;5011386;28;20449;-72
2022/05/04 12:41:02;;;;;;;4.35;2.50;;;23.30;54.50;;;;;;5010925;28;20476;-70
2022/05/04 12:43:36;;;;;;;7.10;2.72;;;23.40;54.40;;;;;;5013120;28;20017;-71
2022/05/04 12:46:07;;;;;;;6.55;3.05;;;23.20;53.70;;;;;;5006604;28;20042;-71
2022/05/04 12:48:36;;;;;;;3.85;2.50;;;23.50;53.50;;;;;;5011594;28;20029;-72
2022/05/04 12:51:04;;;;;;;4.38;2.33;;;23.50;53.30;;;;;;5012045;28;20025;-71
2022/05/04 12:53:30;;;;;;;5.65;2.80;;;23.60;54.30;;;;;;5019245;28;20040;-72
2022/05/04 12:58:40;;;;;;;5.20;2.90;;;23.50;53.10;;;;;;5026895;28;20072;-67
2022/05/04 13:01:07;;;;;;;5.65;2.92;;;23.40;52.70;;;;;;5015177;28;20062;-66
2022/05/04 13:03:33;;;;;;;4.05;2.72;;;23.50;55.10;;;;;;5010720;28;20014;-72
2022/05/04 13:06:00;;;;;;;4.18;2.45;;;23.60;53.20;;;;;;5009899;28;20021;-69
2022/05/04 13:08:26;;;;;;;3.45;2.70;;;23.20;54.10;;;;;;5010144;28;20034;-71
2022/05/04 13:10:53;;;;;;;5.60;2.78;;;23.10;53.50;;;;;;5010778;28;20037;-72
2022/05/04 13:13:20;;;;;;;7.53;2.95;;;23.30;56.60;;;;;;5013413;28;20352;-67
2022/05/04 13:15:47;;;;;;;4.20;2.63;;;23.40;53.90;;;;;;5019065;28;20025;-71
2022/05/04 13:18:15;;;;;;;3.58;2.40;;;23.40;53.10;;;;;;5037993;28;20395;-71